Terminal Aerodrome Forecast
Issued by NWS

Home | Current Version | Previous Version | Text Only | Print | Product List | Glossary On
Versions: 1 2 3 4 5 6 7 8 9 10 11 12 13 14 15
000
FTUS45 KVEF 311100
TAFEED
TAF
KEED 311128Z 3112/0112 01008KT P6SM BKN250
     FM311900 21009KT P6SM FEW120 BKN250
     FM010300 24010KT P6SM FEW150 BKN250=

USA.gov is the U.S. government's official web portal to all federal, state and local government web resources and services.